createdAt,value
2018-11-29T00:00:33.859Z,30.08
2018-11-29T00:03:02.867Z,26.57
2018-11-29T00:05:50.374Z,22.87
2018-11-29T00:08:22.111Z,27.73
2018-11-29T00:10:50.782Z,23.57
2018-11-29T00:13:19.686Z,26.45
2018-11-29T00:15:48.395Z,25.10
2018-11-29T00:18:17.213Z,28.73
2018-11-29T00:20:45.974Z,27.85
2018-11-29T00:23:14.734Z,21.40
2018-11-29T00:25:43.474Z,24.83
2018-11-29T00:28:12.227Z,27.60
2018-11-29T00:30:41.013Z,23.13
2018-11-29T00:33:09.749Z,20.77
2018-11-29T00:35:38.600Z,23.32
2018-11-29T00:38:07.352Z,30.10
2018-11-29T00:40:36.269Z,22.70
2018-11-29T00:43:05.402Z,24.60
2018-11-29T00:45:34.274Z,27.40
2018-11-29T00:48:04.617Z,28.05
2018-11-29T00:50:33.370Z,35.43
2018-11-29T00:53:02.978Z,24.18
2018-11-29T00:55:31.801Z,21.70
2018-11-29T00:58:00.635Z,21.07
2018-11-29T01:00:30.402Z,20.23
2018-11-29T01:02:59.355Z,21.50
2018-11-29T01:05:28.285Z,23.70
2018-11-29T01:07:56.982Z,26.27
2018-11-29T01:10:25.698Z,20.20
2018-11-29T01:12:54.733Z,24.50
2018-11-29T01:15:23.509Z,20.50
2018-11-29T01:17:52.532Z,23.00
2018-11-29T01:20:21.852Z,33.17
2018-11-29T01:22:50.787Z,19.52
2018-11-29T01:25:19.587Z,20.07
2018-11-29T01:27:49.402Z,26.40
2018-11-29T01:30:19.198Z,25.97
2018-11-29T01:32:48.027Z,22.90
2018-11-29T01:35:18.786Z,18.97
2018-11-29T01:37:47.542Z,22.03
2018-11-29T01:40:18.855Z,21.95
2018-11-29T01:42:50.663Z,22.00
2018-11-29T01:45:19.414Z,20.13
2018-11-29T01:47:48.181Z,21.65
2018-11-29T01:50:16.976Z,24.30
2018-11-29T01:52:45.828Z,26.67
2018-11-29T01:55:15.248Z,18.85
2018-11-29T01:57:44.066Z,24.73
2018-11-29T02:00:14.003Z,18.60
2018-11-29T02:02:43.163Z,18.80
2018-11-29T02:05:12.096Z,17.10
2018-11-29T02:07:40.842Z,24.37
2018-11-29T02:10:17.129Z,19.73
2018-11-29T02:12:45.835Z,23.03
2018-11-29T02:15:14.819Z,21.42
2018-11-29T02:17:43.610Z,24.98
2018-11-29T02:20:13.998Z,26.70
2018-11-29T02:22:42.839Z,26.50
2018-11-29T02:25:11.982Z,27.27
2018-11-29T02:27:40.875Z,15.23
2018-11-29T02:30:12.520Z,20.63
2018-11-29T02:32:41.351Z,20.60
2018-11-29T02:35:10.312Z,19.13
2018-11-29T02:37:39.108Z,20.57
2018-11-29T02:40:10.055Z,21.10
2018-11-29T02:42:38.819Z,19.70
2018-11-29T02:45:10.219Z,24.80
2018-11-29T02:47:38.978Z,18.80
2018-11-29T02:50:08.742Z,17.33
2018-11-29T02:52:37.487Z,24.40
2018-11-29T02:55:07.651Z,24.12
2018-11-29T02:57:36.487Z,23.40
2018-11-29T03:00:14.280Z,24.00
2018-11-29T03:02:43.161Z,27.37
2018-11-29T03:05:12.079Z,19.93
2018-11-29T03:07:40.807Z,27.60
2018-11-29T03:10:11.489Z,16.82
2018-11-29T03:12:40.379Z,27.23
2018-11-29T03:15:12.566Z,26.30
2018-11-29T03:17:41.422Z,25.10
2018-11-29T03:20:11.343Z,31.20
2018-11-29T03:22:40.757Z,19.77
2018-11-29T03:25:11.671Z,23.97
2018-11-29T03:27:40.518Z,19.02
2018-11-29T03:30:11.225Z,20.55
2018-11-29T03:32:39.952Z,26.37
2018-11-29T03:35:09.803Z,19.02
2018-11-29T03:37:38.553Z,20.52
2018-11-29T03:40:12.062Z,20.20
2018-11-29T03:42:41.642Z,34.20
2018-11-29T03:45:11.284Z,23.75
2018-11-29T03:47:40.052Z,24.30
2018-11-29T03:50:12.073Z,26.00
2018-11-29T03:52:40.792Z,26.50
2018-11-29T03:55:10.234Z,23.43
2018-11-29T03:57:39.541Z,27.40
2018-11-29T04:00:15.747Z,28.30
2018-11-29T04:02:45.126Z,25.63
2018-11-29T04:05:14.013Z,30.60
2018-11-29T04:07:42.795Z,20.20
2018-11-29T04:10:13.466Z,22.60
2018-11-29T04:12:42.242Z,32.13
2018-11-29T04:15:12.076Z,21.97
2018-11-29T04:17:41.422Z,19.25
2018-11-29T04:20:12.334Z,30.57
2018-11-29T04:22:41.103Z,34.10
2018-11-29T04:25:11.505Z,28.30
2018-11-29T04:27:40.395Z,21.10
2018-11-29T04:30:12.427Z,32.20
2018-11-29T04:32:41.139Z,22.20
2018-11-29T04:35:10.500Z,26.73
2018-11-29T04:37:39.485Z,23.02
2018-11-29T04:40:13.715Z,25.93
2018-11-29T04:42:42.443Z,25.90
2018-11-29T04:45:12.371Z,33.83
2018-11-29T04:47:41.155Z,17.37
2018-11-29T04:50:10.013Z,24.60
2018-11-29T04:52:38.774Z,28.13
2018-11-29T04:55:08.622Z,26.80
2018-11-29T04:57:37.563Z,31.52
2018-11-29T05:00:22.060Z,24.57
2018-11-29T05:02:50.871Z,23.38
2018-11-29T05:05:19.668Z,23.77
2018-11-29T05:07:48.399Z,28.57
2018-11-29T05:10:18.012Z,24.97
2018-11-29T05:12:47.251Z,29.43
2018-11-29T05:15:15.998Z,33.13
2018-11-29T05:17:44.770Z,21.10
2018-11-29T05:20:13.553Z,23.00
2018-11-29T05:22:42.299Z,26.50
2018-11-29T05:25:11.223Z,25.77
2018-11-29T05:27:39.972Z,26.93
2018-11-29T05:30:12.032Z,24.17
2018-11-29T05:32:40.805Z,36.97
2018-11-29T05:35:11.090Z,18.20
2018-11-29T05:37:39.860Z,21.07
2018-11-29T05:40:10.820Z,24.53
2018-11-29T05:42:39.666Z,22.70
2018-11-29T05:45:09.478Z,18.40
2018-11-29T05:47:38.255Z,26.90
2018-11-29T05:50:09.698Z,27.17
2018-11-29T05:52:38.422Z,24.87
2018-11-29T05:55:08.918Z,34.73
2018-11-29T05:57:37.634Z,28.83
2018-11-29T06:00:10.046Z,22.67
2018-11-29T06:02:38.922Z,21.23
2018-11-29T06:05:08.904Z,22.27
2018-11-29T06:07:37.627Z,29.70
2018-11-29T06:10:06.410Z,36.93
2018-11-29T06:12:35.124Z,30.23
2018-11-29T06:15:04.497Z,27.27
2018-11-29T06:17:33.283Z,28.27
2018-11-29T06:20:02.255Z,22.67
2018-11-29T06:22:31.035Z,25.90
2018-11-29T06:24:59.798Z,25.40
2018-11-29T06:27:28.539Z,25.40
2018-11-29T06:29:57.329Z,26.00
2018-11-29T06:32:26.233Z,32.53
2018-11-29T06:34:54.976Z,22.33
2018-11-29T06:37:23.713Z,24.80
2018-11-29T06:39:52.479Z,23.83
2018-11-29T06:42:21.336Z,23.18
2018-11-29T06:44:50.057Z,29.82
2018-11-29T06:47:18.845Z,27.27
2018-11-29T06:49:47.566Z,28.10
2018-11-29T06:52:16.338Z,22.50
2018-11-29T06:54:45.055Z,28.70
2018-11-29T06:57:14.076Z,25.90
2018-11-29T06:59:42.850Z,23.53
2018-11-29T07:02:11.626Z,24.50
2018-11-29T07:04:40.434Z,26.48
2018-11-29T07:07:09.184Z,19.20
2018-11-29T07:09:37.911Z,23.35
2018-11-29T07:12:06.682Z,30.00
2018-11-29T07:14:36.356Z,19.32
2018-11-29T07:17:05.322Z,29.47
2018-11-29T07:19:34.327Z,30.32
2018-11-29T07:22:04.058Z,24.40
2018-11-29T07:24:32.779Z,35.35
2018-11-29T07:27:02.041Z,24.43
2018-11-29T07:29:30.821Z,24.92
2018-11-29T07:31:59.586Z,27.42
2018-11-29T07:34:28.353Z,20.32
2018-11-29T07:36:57.149Z,27.77
2018-11-29T07:39:25.879Z,28.47
2018-11-29T07:41:54.653Z,26.30
2018-11-29T07:44:23.366Z,29.93
2018-11-29T07:46:52.107Z,19.07
2018-11-29T07:49:21.478Z,26.35
2018-11-29T07:51:50.189Z,29.15
2018-11-29T07:54:18.943Z,21.13
2018-11-29T07:56:47.667Z,26.40
2018-11-29T07:59:16.455Z,23.67
2018-11-29T08:01:45.218Z,26.27
2018-11-29T08:04:13.994Z,20.00
2018-11-29T08:06:43.285Z,24.05
2018-11-29T08:09:12.171Z,25.90
2018-11-29T08:11:41.214Z,23.62
2018-11-29T08:14:12.251Z,21.97
2018-11-29T08:16:41.139Z,24.40
2018-11-29T08:19:10.032Z,23.27
2018-11-29T08:21:39.096Z,26.00
2018-11-29T08:24:08.182Z,25.50
2018-11-29T08:26:37.835Z,23.10
2018-11-29T08:29:07.017Z,27.05
2018-11-29T08:31:36.179Z,30.43
2018-11-29T08:34:05.068Z,23.43
2018-11-29T08:36:34.025Z,28.80
2018-11-29T08:39:05.018Z,23.43
2018-11-29T08:41:33.828Z,29.00
2018-11-29T08:44:03.787Z,23.87
2018-11-29T08:46:32.787Z,17.67
2018-11-29T08:49:01.577Z,17.23
2018-11-29T08:51:30.598Z,26.53
2018-11-29T08:53:59.416Z,31.83
2018-11-29T08:56:28.214Z,19.37
2018-11-29T08:58:58.018Z,29.23
2018-11-29T09:01:26.818Z,20.80
2018-11-29T09:03:55.706Z,17.00
2018-11-29T09:06:24.647Z,26.20
2018-11-29T09:08:53.356Z,17.63
2018-11-29T09:11:22.131Z,21.17
2018-11-29T09:13:50.911Z,23.70
2018-11-29T09:16:19.675Z,20.45
2018-11-29T09:18:48.542Z,21.53
2018-11-29T09:21:17.310Z,24.63
2018-11-29T09:23:46.094Z,19.63
2018-11-29T09:26:14.798Z,19.97
2018-11-29T09:28:43.563Z,21.30
2018-11-29T09:31:12.390Z,21.93
2018-11-29T09:33:41.266Z,26.77
2018-11-29T09:36:10.352Z,18.94
2018-11-29T09:38:39.279Z,22.00
2018-11-29T09:41:08.066Z,19.20
2018-11-29T09:43:36.908Z,26.30
2018-11-29T09:46:06.243Z,21.13
2018-11-29T09:48:35.768Z,25.03
2018-11-29T09:51:04.679Z,28.40
2018-11-29T09:53:33.491Z,26.30
2018-11-29T09:56:02.950Z,17.05
2018-11-29T09:58:31.705Z,20.05
2018-11-29T10:01:00.482Z,15.98
2018-11-29T10:03:29.766Z,19.37
2018-11-29T10:05:58.521Z,17.73
2018-11-29T10:08:27.305Z,23.60
2018-11-29T10:10:55.997Z,22.03
2018-11-29T10:13:24.723Z,19.17
2018-11-29T10:15:53.570Z,19.98
2018-11-29T10:18:23.294Z,23.20
2018-11-29T10:20:52.034Z,19.10
2018-11-29T10:23:20.792Z,25.80
2018-11-29T10:25:49.691Z,16.57
2018-11-29T10:28:18.473Z,27.52
2018-11-29T10:30:52.895Z,26.77
2018-11-29T10:33:21.842Z,20.87
2018-11-29T10:35:50.839Z,18.83
2018-11-29T10:38:19.577Z,25.53
2018-11-29T10:40:48.314Z,26.50
2018-11-29T10:43:17.067Z,26.63
2018-11-29T10:45:45.823Z,27.35
2018-11-29T10:48:16.248Z,17.93
2018-11-29T10:50:45.055Z,23.47
2018-11-29T10:53:13.810Z,19.57
2018-11-29T10:55:42.558Z,21.45
2018-11-29T10:58:11.314Z,27.60
2018-11-29T11:00:45.524Z,25.85
2018-11-29T11:03:19.137Z,18.47
2018-11-29T11:05:48.916Z,27.10
2018-11-29T11:08:17.890Z,16.93
2018-11-29T11:10:46.698Z,21.10
2018-11-29T11:13:15.590Z,21.00
2018-11-29T11:15:44.460Z,21.60
2018-11-29T11:18:13.994Z,23.22
2018-11-29T11:20:42.797Z,28.93
2018-11-29T11:23:11.562Z,17.57
2018-11-29T11:25:40.552Z,21.13
2018-11-29T11:28:10.055Z,20.30
2018-11-29T11:30:40.800Z,22.60
2018-11-29T11:33:09.607Z,20.70
2018-11-29T11:35:38.367Z,25.12
2018-11-29T11:38:07.127Z,22.20
2018-11-29T11:40:36.022Z,21.90
2018-11-29T11:43:05.608Z,25.30
2018-11-29T11:45:33.854Z,14.60
2018-11-29T11:48:03.744Z,26.57
2018-11-29T11:50:32.194Z,14.10
2018-11-29T11:53:02.087Z,19.00
2018-11-29T11:55:30.876Z,12.37
2018-11-29T11:57:59.743Z,22.53
2018-11-29T12:00:29.422Z,26.67
2018-11-29T12:03:02.473Z,17.00
2018-11-29T12:05:31.208Z,17.23
2018-11-29T12:07:59.961Z,19.13
2018-11-29T12:10:29.049Z,20.37
2018-11-29T12:12:57.810Z,16.10
2018-11-29T12:15:26.555Z,15.50
2018-11-29T12:17:55.467Z,18.37
2018-11-29T12:20:24.229Z,14.43
2018-11-29T12:22:53.030Z,18.17
2018-11-29T12:25:22.477Z,22.07
2018-11-29T12:27:51.935Z,13.60
2018-11-29T12:30:23.724Z,15.65
2018-11-29T12:32:55.919Z,17.63
2018-11-29T12:35:24.634Z,22.93
2018-11-29T12:37:53.368Z,15.50
2018-11-29T12:40:22.164Z,19.70
2018-11-29T12:42:51.961Z,13.70
2018-11-29T12:45:20.744Z,14.43
2018-11-29T12:47:49.510Z,18.65
2018-11-29T12:50:19.274Z,20.37
2018-11-29T12:52:48.071Z,16.42
2018-11-29T12:55:17.939Z,18.67
2018-11-29T12:57:46.703Z,18.33
2018-11-29T13:00:23.942Z,18.27
2018-11-29T13:02:54.533Z,20.43
2018-11-29T13:05:23.310Z,14.40
2018-11-29T13:07:52.089Z,14.15
2018-11-29T13:10:22.024Z,18.00
2018-11-29T13:12:50.892Z,20.00
2018-11-29T13:15:23.173Z,12.60
2018-11-29T13:17:51.810Z,18.57
2018-11-29T13:20:20.573Z,20.27
2018-11-29T13:22:49.318Z,14.38
2018-11-29T13:25:19.213Z,16.77
2018-11-29T13:27:48.053Z,14.23
2018-11-29T13:30:17.747Z,15.08
2018-11-29T13:32:48.163Z,11.53
2018-11-29T13:35:21.296Z,17.37
2018-11-29T13:37:58.351Z,14.00
2018-11-29T13:40:27.449Z,17.70
2018-11-29T13:42:56.204Z,16.75
2018-11-29T13:45:25.079Z,20.00
2018-11-29T13:47:53.868Z,17.27
2018-11-29T13:50:22.809Z,12.70
2018-11-29T13:52:51.569Z,17.00
2018-11-29T13:55:21.355Z,12.23
2018-11-29T13:57:50.702Z,15.83
2018-11-29T14:00:20.390Z,14.05
2018-11-29T14:02:50.483Z,13.10
2018-11-29T14:05:19.324Z,21.50
2018-11-29T14:07:48.131Z,14.07
2018-11-29T14:10:17.827Z,16.83
2018-11-29T14:12:47.434Z,16.37
2018-11-29T14:15:17.207Z,12.47
2018-11-29T14:17:46.011Z,9.60
2018-11-29T14:20:14.887Z,15.20
2018-11-29T14:22:43.997Z,16.47
2018-11-29T14:25:14.416Z,12.75
2018-11-29T14:27:45.343Z,22.00
2018-11-29T14:30:17.183Z,8.77
2018-11-29T14:32:47.026Z,12.18
2018-11-29T14:35:15.892Z,13.37
2018-11-29T14:37:44.849Z,15.67
2018-11-29T14:40:14.861Z,13.63
2018-11-29T14:42:44.123Z,17.17
2018-11-29T14:45:14.042Z,10.05
2018-11-29T14:47:43.127Z,15.80
2018-11-29T14:50:21.072Z,13.23
2018-11-29T14:52:50.152Z,14.90
2018-11-29T14:55:18.941Z,11.38
2018-11-29T14:57:48.432Z,9.35
2018-11-29T15:00:17.234Z,14.85
2018-11-29T15:02:46.213Z,10.63
2018-11-29T15:05:18.138Z,18.27
2018-11-29T15:07:46.857Z,10.47
2018-11-29T15:10:15.582Z,14.30
2018-11-29T15:12:44.370Z,13.27
2018-11-29T15:15:13.470Z,10.77
2018-11-29T15:17:43.317Z,12.07
2018-11-29T15:20:46.423Z,11.90
2018-11-29T15:23:16.540Z,18.03
2018-11-29T15:25:45.429Z,10.27
2018-11-29T15:28:14.224Z,11.68
2018-11-29T15:30:43.085Z,14.07
2018-11-29T15:33:11.822Z,10.55
2018-11-29T15:35:40.609Z,17.80
2018-11-29T15:38:09.369Z,12.00
2018-11-29T15:40:38.047Z,13.47
2018-11-29T15:43:06.767Z,7.60
2018-11-29T15:45:35.551Z,16.32
2018-11-29T15:48:04.512Z,10.03
2018-11-29T15:50:33.319Z,12.77
2018-11-29T15:53:02.940Z,9.58
2018-11-29T16:00:32.594Z,9.47
2018-11-29T16:03:03.645Z,11.20
2018-11-29T16:05:32.386Z,8.63
2018-11-29T16:08:01.323Z,13.13
2018-11-29T16:10:30.026Z,7.23
2018-11-29T16:12:58.822Z,8.80
2018-11-29T16:15:27.574Z,8.65
2018-11-29T16:17:56.367Z,12.83
2018-11-29T16:20:26.154Z,8.50
2018-11-29T16:22:54.930Z,10.55
2018-11-29T16:25:23.862Z,10.60
2018-11-29T16:27:52.788Z,8.40
2018-11-29T16:30:29.841Z,9.33
2018-11-29T16:33:02.077Z,13.70
2018-11-29T16:35:30.804Z,15.78
2018-11-29T16:37:59.527Z,10.13
2018-11-29T16:40:28.309Z,12.33
2018-11-29T16:42:57.019Z,13.43
2018-11-29T16:45:25.884Z,13.93
2018-11-29T16:47:54.582Z,12.70
2018-11-29T16:50:23.370Z,11.83
2018-11-29T16:52:52.166Z,12.67
2018-11-29T16:55:21.074Z,13.00
2018-11-29T16:57:52.777Z,13.63
2018-11-29T17:00:22.103Z,10.15
2018-11-29T17:02:51.807Z,9.80
2018-11-29T17:05:20.583Z,12.00
2018-11-29T17:07:49.400Z,12.77
2018-11-29T17:10:19.347Z,11.67
2018-11-29T17:12:53.639Z,14.53
2018-11-29T17:15:22.395Z,10.57
2018-11-29T17:17:51.155Z,15.90
2018-11-29T17:20:20.457Z,9.60
2018-11-29T17:22:50.202Z,12.27
2018-11-29T17:25:19.092Z,8.03
2018-11-29T17:27:48.352Z,13.55
2018-11-29T17:30:23.131Z,11.18
2018-11-29T17:32:54.056Z,15.70
2018-11-29T17:35:22.896Z,9.73
2018-11-29T17:37:52.391Z,14.55
2018-11-29T17:40:21.930Z,9.35
2018-11-29T17:42:51.838Z,10.63
2018-11-29T17:50:26.597Z,5.80
2018-11-29T17:52:55.446Z,7.80
2018-11-29T17:55:24.191Z,10.57
2018-11-29T17:57:53.210Z,11.63
2018-11-29T18:00:23.285Z,10.87
2018-11-29T18:02:52.735Z,10.07
2018-11-29T18:05:21.528Z,9.40
2018-11-29T18:07:50.602Z,11.70
2018-11-29T18:10:20.818Z,10.18
2018-11-29T18:12:52.478Z,7.62
2018-11-29T18:15:24.553Z,11.37
2018-11-29T18:17:53.636Z,12.80
2018-11-29T18:20:22.743Z,10.10
2018-11-29T18:22:51.746Z,11.08
2018-11-29T18:25:21.165Z,10.97
2018-11-29T18:27:51.313Z,9.40
2018-11-29T18:30:21.479Z,13.28
2018-11-29T18:32:50.590Z,13.13
2018-11-29T18:35:19.704Z,7.03
2018-11-29T18:37:48.642Z,5.00
2018-11-29T18:40:20.126Z,8.27
2018-11-29T18:42:52.671Z,12.23
2018-11-29T18:45:21.587Z,6.78
2018-11-29T18:47:51.407Z,6.00
2018-11-29T18:50:21.176Z,8.13
2018-11-29T18:52:50.013Z,6.37
2018-11-29T18:55:19.002Z,7.63
2018-11-29T18:57:47.957Z,7.57
2018-11-29T19:00:21.029Z,7.73
2018-11-29T19:02:49.938Z,8.60
2018-11-29T19:05:18.930Z,9.13
2018-11-29T19:07:47.859Z,6.63
2018-11-29T19:10:17.426Z,9.83
2018-11-29T19:12:48.714Z,9.23
2018-11-29T19:15:17.819Z,9.10
2018-11-29T19:17:46.934Z,6.63
2018-11-29T19:20:16.030Z,6.43
2018-11-29T19:22:45.096Z,6.77
2018-11-29T19:25:15.298Z,9.00
2018-11-29T19:27:44.336Z,6.78
2018-11-29T19:30:17.317Z,9.20
2018-11-29T19:32:47.590Z,6.40
2018-11-29T19:35:16.477Z,9.43
2018-11-29T19:37:45.275Z,9.95
2018-11-29T19:40:15.017Z,8.13
2018-11-29T19:42:44.243Z,7.73
2018-11-29T19:45:14.491Z,6.67
2018-11-29T19:47:43.319Z,10.35
2018-11-29T19:50:16.485Z,11.60
2018-11-29T19:52:46.849Z,7.25
2018-11-29T19:55:20.419Z,8.08
2018-11-29T19:57:49.206Z,5.80
2018-11-29T20:00:19.299Z,7.03
2018-11-29T20:02:48.802Z,6.58
2018-11-29T20:05:18.135Z,7.93
2018-11-29T20:07:47.003Z,7.12
2018-11-29T20:10:17.020Z,10.20
2018-11-29T20:12:47.331Z,7.90
2018-11-29T20:15:20.724Z,6.70
2018-11-29T20:17:49.874Z,6.70
2018-11-29T20:20:18.966Z,10.10
2018-11-29T20:22:48.083Z,6.97
2018-11-29T20:25:18.086Z,4.93
2018-11-29T20:27:47.003Z,6.77
2018-11-29T20:30:17.970Z,5.93
2018-11-29T20:32:48.693Z,7.40
2018-11-29T20:35:18.110Z,6.77
2018-11-29T20:37:47.803Z,7.20
2018-11-29T20:40:28.107Z,6.10
2018-11-29T20:42:58.274Z,8.57
2018-11-29T20:45:33.386Z,7.43
2018-11-29T20:48:06.734Z,13.05
2018-11-29T20:50:35.770Z,7.13
2018-11-29T20:53:04.896Z,7.80
2018-11-29T20:55:34.711Z,7.63
2018-11-29T20:58:04.474Z,7.33
2018-11-29T21:00:33.182Z,8.87
2018-11-29T21:03:02.427Z,8.57
2018-11-29T21:05:32.344Z,7.17
2018-11-29T21:08:03.168Z,5.70
2018-11-29T21:10:32.156Z,5.30
2018-11-29T21:13:06.367Z,6.20
2018-11-29T21:15:37.384Z,6.35
2018-11-29T21:18:07.816Z,7.87
2018-11-29T21:20:37.068Z,7.67
2018-11-29T21:23:07.691Z,6.05
2018-11-29T21:25:36.770Z,11.53
2018-11-29T21:28:06.673Z,5.17
2018-11-29T21:30:35.538Z,7.95
2018-11-29T21:33:05.285Z,8.13
2018-11-29T21:35:34.297Z,6.93
2018-11-29T21:41:02.768Z,5.63
2018-11-29T21:43:31.595Z,7.62
2018-11-29T21:46:00.799Z,4.83
2018-11-29T21:48:31.482Z,6.73
2018-11-29T21:51:00.239Z,9.33
2018-11-29T21:53:30.135Z,8.90
2018-11-29T21:55:59.005Z,9.50
2018-11-29T21:58:27.803Z,4.45
2018-11-29T22:00:56.870Z,6.70
2018-11-29T22:03:25.918Z,8.15
2018-11-29T22:05:54.651Z,5.30
2018-11-29T22:08:24.584Z,5.37
2018-11-29T22:10:53.599Z,9.73
2018-11-29T22:13:22.382Z,8.03
2018-11-29T22:15:51.134Z,5.40
2018-11-29T22:18:21.303Z,10.23
2018-11-29T22:20:52.473Z,7.93
2018-11-29T22:23:21.482Z,7.73
2018-11-29T22:25:50.586Z,6.40
2018-11-29T22:28:19.883Z,10.25
2018-11-29T22:30:48.767Z,6.72
2018-11-29T22:33:17.891Z,6.50
2018-11-29T22:35:46.889Z,5.93
2018-11-29T22:38:15.934Z,6.73
2018-11-29T22:40:44.917Z,8.63
2018-11-29T22:43:14.086Z,5.37
2018-11-29T22:45:43.363Z,6.17
2018-11-29T22:48:12.778Z,5.72
2018-11-29T22:50:41.522Z,4.75
2018-11-29T22:53:10.311Z,9.50
2018-11-29T22:55:39.770Z,5.05
2018-11-29T22:58:08.922Z,6.33
2018-11-29T23:00:43.148Z,5.97
2018-11-29T23:03:13.374Z,5.53
2018-11-29T23:05:42.328Z,7.83
2018-11-29T23:08:11.164Z,5.30
2018-11-29T23:10:40.034Z,6.60
2018-11-29T23:13:08.923Z,6.95
2018-11-29T23:15:38.024Z,5.13
2018-11-29T23:18:07.204Z,6.57
2018-11-29T23:20:36.108Z,6.07
2018-11-29T23:23:05.340Z,5.93
2018-11-29T23:25:34.478Z,6.03
2018-11-29T23:28:06.082Z,5.87
2018-11-29T23:30:35.020Z,6.40
2018-11-29T23:33:04.407Z,9.57
2018-11-29T23:35:33.330Z,5.40
2018-11-29T23:38:03.030Z,12.40
2018-11-29T23:40:32.040Z,7.30
2018-11-29T23:43:00.951Z,5.03
2018-11-29T23:45:30.191Z,8.48
2018-11-29T23:48:00.041Z,4.92
2018-11-29T23:50:29.388Z,6.90
2018-11-29T23:52:58.215Z,6.23
2018-11-29T23:55:27.036Z,5.93
2018-11-29T23:57:58.004Z,5.50
